createdAt,value
2018-04-19T06:04:38.515Z,101560.37
2018-04-19T06:07:04.114Z,101558.31
2018-04-19T06:09:29.810Z,101559.91
2018-04-19T06:11:55.376Z,101556.88
2018-04-19T06:14:21.113Z,101550.92
2018-04-19T06:16:46.764Z,101552.04
2018-04-19T06:19:12.472Z,101548.81
2018-04-19T06:21:38.019Z,101548.73
2018-04-19T06:24:03.790Z,101552.23
2018-04-19T06:26:29.337Z,101551.44
2018-04-19T06:28:55.076Z,101553.77
2018-04-19T06:31:20.679Z,101550.28
2018-04-19T06:33:46.579Z,101549.63
2018-04-19T06:36:12.240Z,101547.41
2018-04-19T06:38:37.759Z,101550.26
2018-04-19T06:41:03.527Z,101553.52
2018-04-19T06:43:29.059Z,101549.84
2018-04-19T06:45:54.968Z,101549.08
2018-04-19T06:48:20.527Z,101549.89
2018-04-19T06:50:46.281Z,101542.58
2018-04-19T06:53:11.842Z,101538.09
2018-04-19T06:55:37.583Z,101541.30
2018-04-19T06:58:03.121Z,101539.95
2018-04-19T07:00:28.842Z,101537.66
2018-04-19T07:02:54.435Z,101535.56
2018-04-19T07:05:20.212Z,101535.91
2018-04-19T07:07:45.769Z,101541.41
2018-04-19T07:10:11.479Z,101540.72
2018-04-19T07:12:37.064Z,101536.62
2018-04-19T07:15:02.605Z,101540.80
2018-04-19T07:17:28.314Z,101542.64
2018-04-19T07:19:53.872Z,101534.91
2018-04-19T07:22:19.634Z,101538.08
2018-04-19T07:24:45.207Z,101536.64
2018-04-19T07:27:10.963Z,101536.81
2018-04-19T07:29:36.509Z,101538.19
2018-04-19T07:32:02.341Z,101538.28
2018-04-19T07:34:27.851Z,101534.59
2018-04-19T07:36:53.572Z,101522.69
2018-04-19T07:39:19.117Z,101527.94
2018-04-19T07:41:44.922Z,101522.78
2018-04-19T07:44:10.481Z,101519.13
2018-04-19T07:46:36.083Z,101523.34
2018-04-19T07:49:01.918Z,101522.34
2018-04-19T07:51:27.489Z,101521.36
2018-04-19T07:53:53.268Z,101520.58
2018-04-19T07:56:18.870Z,101526.55
2018-04-19T07:58:44.752Z,101523.66
2018-04-19T08:01:10.388Z,101523.60
2018-04-19T08:03:36.104Z,101529.34
2018-04-19T08:06:01.648Z,101528.13
2018-04-19T08:08:27.435Z,101511.02
2018-04-19T08:10:52.991Z,101512.60
2018-04-19T08:13:18.716Z,101510.92
2018-04-19T08:15:44.250Z,101516.35
2018-04-19T08:18:09.947Z,101510.27
2018-04-19T08:20:35.489Z,101518.34
2018-04-19T08:23:01.218Z,101513.95
2018-04-19T08:25:26.834Z,101509.09
2018-04-19T08:27:52.502Z,101515.58
2018-04-19T08:30:18.087Z,101513.03
2018-04-19T08:32:43.953Z,101518.54
2018-04-19T08:35:09.550Z,101515.09
2018-04-19T08:37:35.338Z,101513.28
2018-04-19T08:40:00.870Z,101517.58
2018-04-19T08:42:26.537Z,101505.86
2018-04-19T08:44:52.097Z,101512.31
2018-04-19T08:47:18.080Z,101509.08
2018-04-19T08:49:43.638Z,101499.96
2018-04-19T08:52:09.225Z,101504.80
2018-04-19T08:54:35.016Z,101510.82
2018-04-19T08:57:00.584Z,101503.59
2018-04-19T08:59:26.347Z,101502.30
2018-04-19T09:01:51.936Z,101503.92
2018-04-19T09:04:17.621Z,101498.28
2018-04-19T09:06:43.172Z,101502.62
2018-04-19T09:09:08.950Z,101507.27
2018-04-19T09:11:34.509Z,101502.16
2018-04-19T09:14:00.305Z,101499.75
2018-04-19T09:16:25.902Z,101492.34
2018-04-19T09:18:51.666Z,101491.05
2018-04-19T09:21:17.218Z,101490.66
2018-04-19T09:23:42.961Z,101483.05
2018-04-19T09:26:08.559Z,101474.19
2018-04-19T09:28:34.259Z,101474.27
2018-04-19T09:30:59.803Z,101476.03
2018-04-19T09:33:25.522Z,101471.74
2018-04-19T09:35:51.077Z,101472.64
2018-04-19T09:38:17.062Z,101476.27
2018-04-19T09:40:42.822Z,101467.92
2018-04-19T09:43:08.365Z,101462.51
2018-04-19T09:45:34.069Z,101467.28
2018-04-19T09:47:59.611Z,101464.52
2018-04-19T09:50:25.317Z,101460.94
2018-04-19T09:52:50.861Z,101458.16
2018-04-19T09:55:16.663Z,101462.56
2018-04-19T09:58:07.247Z,101459.03
2018-04-19T10:00:33.011Z,101458.25
2018-04-19T10:02:58.587Z,101454.64
2018-04-19T10:05:24.368Z,101457.03
2018-04-19T10:07:49.934Z,101455.06
2018-04-19T10:10:15.722Z,101449.89
2018-04-19T10:15:21.664Z,101449.50
2018-04-19T10:17:47.213Z,101451.51
2018-04-19T10:20:12.970Z,101445.12
2018-04-19T10:22:38.577Z,101442.34
2018-04-19T10:25:04.330Z,101437.92
2018-04-19T10:27:29.923Z,101426.81
2018-04-19T10:29:55.545Z,101441.11
2018-04-19T10:32:21.107Z,101435.52
2018-04-19T10:34:46.934Z,101431.20
2018-04-19T10:37:12.498Z,101433.16
2018-04-19T10:39:38.225Z,101425.94
2018-04-19T10:42:03.782Z,101421.47
2018-04-19T10:44:29.527Z,101422.66
2018-04-19T10:46:55.130Z,101415.05
2018-04-19T10:49:20.891Z,101418.62
2018-04-19T10:51:46.416Z,101413.04
2018-04-19T10:54:12.201Z,101407.86
2018-04-19T10:56:37.732Z,101415.04
2018-04-19T10:59:03.493Z,101408.19
2018-04-19T11:01:29.046Z,101407.73
2018-04-19T11:03:54.739Z,101406.95
2018-04-19T11:06:20.272Z,101396.23
2018-04-19T11:08:46.005Z,101403.39
2018-04-19T11:11:11.546Z,101397.34
2018-04-19T11:13:37.384Z,101403.29
2018-04-19T11:16:02.954Z,101399.67
2018-04-19T11:18:28.721Z,101401.54
2018-04-19T11:20:54.257Z,101396.20
2018-04-19T11:23:19.956Z,101397.78
2018-04-19T11:25:45.504Z,101389.22
2018-04-19T11:28:11.215Z,101381.22
2018-04-19T11:30:36.755Z,101376.06
2018-04-19T11:33:02.361Z,101378.78
2018-04-19T11:35:28.092Z,101378.56
2018-04-19T11:37:53.701Z,101373.02
2018-04-19T11:40:19.453Z,101375.08
2018-04-19T11:42:45.008Z,101363.98
2018-04-19T11:45:10.927Z,101366.17
2018-04-19T11:47:36.505Z,101361.30
2018-04-19T11:50:02.268Z,101366.70
2018-04-19T11:52:27.816Z,101368.58
2018-04-19T11:54:53.575Z,101360.92
2018-04-19T11:57:19.128Z,101365.87
2018-04-19T11:59:44.823Z,101358.59
2018-04-19T12:02:10.427Z,101361.27
2018-04-19T12:04:36.120Z,101353.85
2018-04-19T12:07:01.668Z,101348.64
2018-04-19T12:09:27.390Z,101360.16
2018-04-19T12:11:52.937Z,101349.88
2018-04-19T12:14:18.779Z,101346.89
2018-04-19T12:16:44.385Z,101339.65
2018-04-19T12:19:10.111Z,101347.05
2018-04-19T12:21:35.638Z,101336.52
2018-04-19T12:24:01.336Z,101338.84
2018-04-19T12:26:26.883Z,101340.32
2018-04-19T12:28:52.690Z,101335.63
2018-04-19T12:31:18.246Z,101337.28
2018-04-19T12:33:43.944Z,101330.41
2018-04-19T12:36:09.488Z,101328.81
2018-04-19T12:38:35.202Z,101331.56
2018-04-19T12:41:01.304Z,101321.64
2018-04-19T12:43:27.083Z,101318.27
2018-04-19T12:45:52.616Z,101320.44
2018-04-19T12:48:18.421Z,101316.12
2018-04-19T12:50:44.023Z,101318.45
2018-04-19T12:53:09.844Z,101307.19
2018-04-19T12:55:35.387Z,101306.02
2018-04-19T12:58:01.484Z,101313.29
2018-04-19T13:00:27.088Z,101306.28
2018-04-19T13:02:52.644Z,101315.63
2018-04-19T13:05:18.582Z,101311.55
2018-04-19T13:07:44.148Z,101305.69
2018-04-19T13:10:09.828Z,101295.84
2018-04-19T13:12:35.382Z,101295.02
2018-04-19T13:15:01.168Z,101298.42
2018-04-19T13:17:26.706Z,101303.72
2018-04-19T13:19:52.582Z,101298.30
2018-04-19T13:22:18.145Z,101290.92
2018-04-19T13:24:43.920Z,101288.45
2018-04-19T13:27:09.530Z,101285.72
2018-04-19T13:29:35.300Z,101276.69
2018-04-19T13:32:00.836Z,101285.02
2018-04-19T13:34:26.539Z,101273.22
2018-04-19T13:36:52.097Z,101266.12
2018-04-19T13:39:17.855Z,101275.81
2018-04-19T13:41:43.401Z,101270.20
2018-04-19T13:44:09.196Z,101260.66
2018-04-19T13:46:34.777Z,101255.34
2018-04-19T13:49:00.362Z,101247.64
2018-04-19T13:51:28.175Z,101255.69
2018-04-19T13:53:53.711Z,101241.77
2018-04-19T13:56:19.430Z,101241.27
2018-04-19T13:58:44.980Z,101240.16
2018-04-19T14:01:10.729Z,101238.82
2018-04-19T14:03:36.274Z,101234.02
2018-04-19T14:06:02.038Z,101231.42
2018-04-19T14:08:27.602Z,101233.87
2018-04-19T14:10:53.142Z,101225.45
2018-04-19T14:13:18.953Z,101227.05
2018-04-19T14:15:44.451Z,101218.36
2018-04-19T14:18:10.140Z,101213.39
2018-04-19T14:20:35.675Z,101229.11
2018-04-19T14:23:01.412Z,101218.16
2018-04-19T14:25:26.978Z,101218.91
2018-04-19T14:27:52.777Z,101205.95
2018-04-19T14:30:18.323Z,101219.98
2018-04-19T14:32:45.148Z,101210.14
2018-04-19T14:35:10.702Z,101211.30
2018-04-19T14:37:36.388Z,101204.61
2018-04-19T14:40:01.979Z,101205.24
2018-04-19T14:42:27.752Z,101203.06
2018-04-19T14:44:53.584Z,101203.19
2018-04-19T14:47:19.316Z,101200.48
2018-04-19T14:49:44.880Z,101207.46
2018-04-19T14:52:10.571Z,101203.33
2018-04-19T14:54:36.111Z,101199.90
2018-04-19T14:57:01.803Z,101192.72
2018-04-19T14:59:27.371Z,101191.75
2018-04-19T15:01:53.180Z,101191.12
2018-04-19T15:04:18.729Z,101182.33
2018-04-19T15:06:44.323Z,101186.81
2018-04-19T15:09:09.980Z,101188.90
2018-04-19T15:11:35.519Z,101193.48
2018-04-19T15:14:01.298Z,101186.39
2018-04-19T15:16:26.849Z,101179.91
2018-04-19T15:18:52.551Z,101187.75
2018-04-19T15:21:18.112Z,101180.27
2018-04-19T15:23:43.775Z,101177.12
2018-04-19T15:26:09.324Z,101177.88
2018-04-19T15:28:35.053Z,101177.54
2018-04-19T15:31:00.652Z,101184.71
2018-04-19T15:33:26.418Z,101182.31
2018-04-19T15:35:51.958Z,101173.41
2018-04-19T15:38:17.760Z,101180.92
2018-04-19T15:40:43.295Z,101174.56
2018-04-19T15:43:09.021Z,101168.16
2018-04-19T15:45:34.620Z,101168.86
2018-04-19T15:48:00.594Z,101174.91
2018-04-19T15:50:26.134Z,101173.31
2018-04-19T15:52:51.962Z,101171.83
2018-04-19T15:55:17.520Z,101167.67
2018-04-19T15:57:43.252Z,101179.80
2018-04-19T16:00:08.802Z,101171.97
2018-04-19T16:02:34.491Z,101167.86
2018-04-19T16:05:00.069Z,101165.87
2018-04-19T16:07:25.789Z,101171.44
2018-04-19T16:09:51.346Z,101164.84
2018-04-19T16:12:17.045Z,101174.37
2018-04-19T16:14:42.585Z,101167.14
2018-04-19T16:17:08.203Z,101167.34
2018-04-19T16:19:34.017Z,101163.53
2018-04-19T16:21:59.563Z,101170.06
2018-04-19T16:24:25.440Z,101164.41
2018-04-19T16:26:51.005Z,101165.14
2018-04-19T16:29:16.830Z,101160.88
2018-04-19T16:31:42.375Z,101161.23
2018-04-19T16:34:08.103Z,101157.33
2018-04-19T16:36:33.663Z,101163.80
2018-04-19T16:38:59.430Z,101159.67
2018-04-19T16:41:25.018Z,101154.14
2018-04-19T16:43:50.857Z,101161.27
2018-04-19T16:46:16.393Z,101155.30
2018-04-19T16:48:42.128Z,101161.41
2018-04-19T16:51:07.671Z,101159.81
2018-04-19T16:53:33.397Z,101165.27
2018-04-19T16:55:58.945Z,101160.73
2018-04-19T16:58:24.704Z,101166.70
2018-04-19T17:00:50.266Z,101158.14
2018-04-19T17:03:16.051Z,101158.83
2018-04-19T17:05:41.660Z,101157.60
2018-04-19T17:08:07.341Z,101148.08
2018-04-19T17:10:32.913Z,101153.23
2018-04-19T17:12:58.442Z,101149.81
2018-04-19T17:15:24.140Z,101148.19
2018-04-19T17:17:49.699Z,101150.62
2018-04-19T17:20:15.355Z,101146.14
2018-04-19T17:22:40.899Z,101151.89
2018-04-19T17:25:06.710Z,101152.06
2018-04-19T17:27:32.257Z,101142.34
2018-04-19T17:29:58.002Z,101141.21
2018-04-19T17:32:23.598Z,101142.41
2018-04-19T17:34:49.343Z,101146.91
2018-04-19T17:37:14.947Z,101148.59
2018-04-19T17:39:40.996Z,101146.00
2018-04-19T17:42:06.545Z,101145.52
2018-04-19T17:44:32.244Z,101148.36
2018-04-19T17:46:57.769Z,101143.97
2018-04-19T17:49:23.515Z,101143.44
2018-04-19T17:51:49.166Z,101142.02
2018-04-19T17:54:14.948Z,101146.42
2018-04-19T17:56:40.571Z,101150.54
2018-04-19T17:59:06.432Z,101157.11
2018-04-19T18:01:31.986Z,101151.25
2018-04-19T18:03:57.684Z,101156.96
2018-04-19T18:06:23.242Z,101153.61
2018-04-19T18:08:49.140Z,101164.37
2018-04-19T18:11:14.690Z,101158.72
2018-04-19T18:13:40.491Z,101155.73
2018-04-19T18:16:06.053Z,101155.81
2018-04-19T18:18:31.890Z,101152.84
2018-04-19T18:20:57.440Z,101150.89
2018-04-19T18:23:23.199Z,101159.83
2018-04-19T18:25:48.810Z,101159.52
2018-04-19T18:28:14.758Z,101160.07
2018-04-19T18:30:40.303Z,101166.92
2018-04-19T18:33:06.007Z,101158.23
2018-04-19T18:35:31.585Z,101170.70
2018-04-19T18:37:57.365Z,101161.14
2018-04-19T18:40:22.903Z,101164.41
2018-04-19T18:42:48.459Z,101176.79
2018-04-19T18:45:14.451Z,101168.80
2018-04-19T18:47:39.994Z,101173.63
2018-04-19T18:50:05.806Z,101177.34
2018-04-19T18:52:31.414Z,101171.70
2018-04-19T18:54:57.115Z,101184.85
2018-04-19T18:57:22.661Z,101175.02
2018-04-19T18:59:48.421Z,101181.84
2018-04-19T19:02:13.981Z,101181.90
2018-04-19T19:04:39.768Z,101188.23
2018-04-19T19:07:05.364Z,101190.09
2018-04-19T19:09:31.118Z,101182.33
2018-04-19T19:11:56.677Z,101185.87
2018-04-19T19:14:22.403Z,101190.70
2018-04-19T19:16:47.956Z,101191.89
2018-04-19T19:19:51.303Z,101199.48
2018-04-19T19:22:16.850Z,101202.28
2018-04-19T19:24:42.579Z,101196.72
2018-04-19T19:27:08.134Z,101201.55
2018-04-19T19:29:33.923Z,101202.69
2018-04-19T19:31:59.475Z,101201.55
2018-04-19T19:34:25.026Z,101207.06
2018-04-19T19:36:50.781Z,101205.51
2018-04-19T19:39:16.355Z,101223.37
2018-04-19T19:41:42.046Z,101218.22
2018-04-19T19:44:07.601Z,101221.40
2018-04-19T19:46:33.305Z,101218.62
2018-04-19T19:48:58.841Z,101220.22
2018-04-19T19:51:24.555Z,101218.60
2018-04-19T19:53:50.099Z,101213.84
2018-04-19T19:56:15.800Z,101220.61
2018-04-19T19:58:41.349Z,101217.03
2018-04-19T20:01:07.053Z,101216.63
2018-04-19T20:03:32.597Z,101218.59
2018-04-19T20:05:58.419Z,101222.94
2018-04-19T20:08:23.959Z,101218.19
2018-04-19T20:10:49.765Z,101210.67
2018-04-19T20:13:15.371Z,101211.45
2018-04-19T20:15:40.914Z,101211.05
2018-04-19T20:18:06.697Z,101212.13
2018-04-19T20:20:32.243Z,101217.70
2018-04-19T20:22:58.029Z,101211.77
2018-04-19T20:25:23.591Z,101220.47
2018-04-19T20:27:49.511Z,101217.28
2018-04-19T20:30:15.111Z,101216.47
2018-04-19T20:35:12.715Z,101222.37
2018-04-19T20:37:38.516Z,101214.83
2018-04-19T20:40:04.080Z,101218.36
2018-04-19T20:42:29.762Z,101223.89
2018-04-19T20:44:55.317Z,101216.71
2018-04-19T20:47:21.084Z,101217.41
2018-04-19T20:49:46.647Z,101212.23
2018-04-19T20:52:12.373Z,101218.98
2018-04-19T20:54:37.938Z,101208.73
2018-04-19T20:57:03.779Z,101213.78
2018-04-19T20:59:29.321Z,101216.95
2018-04-19T21:01:55.134Z,101210.89
2018-04-19T21:04:20.690Z,101208.61
2018-04-19T21:06:46.567Z,101214.54
2018-04-19T21:09:12.134Z,101208.88
2018-04-19T21:11:37.686Z,101203.95
2018-04-19T21:14:03.416Z,101203.95
2018-04-19T21:16:30.654Z,101212.59
2018-04-19T21:18:56.428Z,101210.53
2018-04-19T21:21:22.909Z,101209.23
2018-04-19T21:23:48.732Z,101213.41
2018-04-19T21:26:14.336Z,101206.19
2018-04-19T21:28:40.025Z,101214.84
2018-04-19T21:31:05.576Z,101215.30
2018-04-19T21:33:31.288Z,101208.41
2018-04-19T21:35:56.876Z,101214.30
2018-04-19T21:38:22.657Z,101212.34
2018-04-19T21:40:48.236Z,101205.10
2018-04-19T21:43:14.004Z,101213.06
2018-04-19T21:45:39.550Z,101205.48
2018-04-19T21:48:05.253Z,101207.75
2018-04-19T21:50:30.792Z,101205.44
2018-04-19T21:52:56.388Z,101200.33
2018-04-19T21:55:22.108Z,101199.95
2018-04-19T21:57:47.922Z,101198.30
